createdAt,value
2023-01-11T00:00:28.858Z,97408.63
2023-01-11T00:03:02.571Z,97410.88
2023-01-11T00:05:29.113Z,97408.81
2023-01-11T00:07:56.230Z,97416.44
2023-01-11T00:10:23.174Z,97398.50
2023-01-11T00:12:49.663Z,97403.44
2023-01-11T00:15:16.511Z,97397.25
2023-01-11T00:17:42.976Z,97384.47
2023-01-11T00:20:10.597Z,97374.56
2023-01-11T00:22:37.658Z,97381.13
2023-01-11T00:25:04.790Z,97377.25
2023-01-11T00:27:31.289Z,97373.91
2023-01-11T00:29:58.232Z,97369.16
2023-01-11T00:32:24.927Z,97362.78
2023-01-11T00:34:51.457Z,97361.34
2023-01-11T00:37:17.946Z,97367.56
2023-01-11T00:39:44.474Z,97357.81
2023-01-11T00:42:30.540Z,97358.63
2023-01-11T00:45:35.243Z,97355.81
2023-01-11T00:48:05.826Z,97345.91
2023-01-11T00:50:34.705Z,97340.97
2023-01-11T00:53:01.661Z,97338.25
2023-01-11T00:55:28.404Z,97331.28
2023-01-11T00:57:54.996Z,97338.94
2023-01-11T01:00:21.747Z,97336.47
2023-01-11T01:02:49.258Z,97331.53
2023-01-11T01:05:16.631Z,97337.47
2023-01-11T01:07:43.710Z,97337.03
2023-01-11T01:10:12.173Z,97322.56
2023-01-11T01:12:57.948Z,97328.44
2023-01-11T01:15:24.587Z,97326.97
2023-01-11T01:17:56.114Z,97334.78
2023-01-11T01:20:24.023Z,97326.97
2023-01-11T01:22:50.999Z,97332.13
2023-01-11T01:25:17.735Z,97325.03
2023-01-11T01:27:44.345Z,97323.47
2023-01-11T01:30:11.184Z,97317.03
2023-01-11T01:32:37.773Z,97330.88
2023-01-11T01:35:04.480Z,97323.25
2023-01-11T01:37:30.953Z,97328.59
2023-01-11T01:39:57.408Z,97324.63
2023-01-11T01:42:25.116Z,97329.19
2023-01-11T01:44:54.420Z,97319.72
2023-01-11T01:47:34.988Z,97312.94
2023-01-11T01:50:10.502Z,97315.81
2023-01-11T01:52:37.051Z,97310.25
2023-01-11T01:55:10.461Z,97315.03
2023-01-11T01:57:40.891Z,97312.56
2023-01-11T02:00:09.716Z,97322.25
2023-01-11T02:02:38.633Z,97310.28
2023-01-11T02:05:06.251Z,97311.09
2023-01-11T02:07:35.513Z,97303.03
2023-01-11T02:10:07.967Z,97304.06
2023-01-11T02:12:42.052Z,97298.06
2023-01-11T02:15:10.905Z,97297.25
2023-01-11T02:17:37.563Z,97288.78
2023-01-11T02:20:41.455Z,97298.09
2023-01-11T02:23:31.503Z,97300.34
2023-01-11T02:26:35.422Z,97288.38
2023-01-11T02:29:26.693Z,97279.06
2023-01-11T02:32:08.816Z,97278.44
2023-01-11T02:34:50.391Z,97276.38
2023-01-11T02:37:43.188Z,97271.00
2023-01-11T02:40:20.999Z,97278.81
2023-01-11T02:43:14.181Z,97282.25
2023-01-11T02:46:08.457Z,97280.13
2023-01-11T02:48:54.223Z,97274.91
2023-01-11T02:51:40.695Z,97274.69
2023-01-11T02:54:09.905Z,97279.25
2023-01-11T02:56:40.995Z,97276.38
2023-01-11T02:59:17.696Z,97279.97
2023-01-11T03:01:50.839Z,97271.41
2023-01-11T03:04:29.833Z,97261.69
2023-01-11T03:07:15.225Z,97263.19
2023-01-11T03:09:54.139Z,97268.38
2023-01-11T03:12:54.761Z,97263.47
2023-01-11T03:15:47.485Z,97259.59
2023-01-11T03:18:41.765Z,97260.78
2023-01-11T03:21:23.469Z,97267.78
2023-01-11T03:24:13.547Z,97260.47
2023-01-11T03:26:50.745Z,97252.13
2023-01-11T03:29:29.380Z,97250.81
2023-01-11T03:32:04.836Z,97249.63
2023-01-11T03:34:38.660Z,97253.94
2023-01-11T03:37:12.540Z,97241.34
2023-01-11T03:40:04.305Z,97235.41
2023-01-11T03:42:33.862Z,97246.09
2023-01-11T03:45:03.022Z,97237.66
2023-01-11T03:47:30.617Z,97237.75
2023-01-11T03:50:06.097Z,97227.31
2023-01-11T03:52:37.268Z,97230.75
2023-01-11T03:55:07.994Z,97219.13
2023-01-11T03:57:42.272Z,97212.88
2023-01-11T04:00:09.941Z,97202.28
2023-01-11T04:02:40.916Z,97208.22
2023-01-11T04:05:09.568Z,97199.88
2023-01-11T04:07:36.001Z,97197.78
2023-01-11T04:10:03.089Z,97204.16
2023-01-11T04:12:29.634Z,97192.25
2023-01-11T04:14:56.157Z,97200.91
2023-01-11T04:17:22.829Z,97204.56
2023-01-11T04:19:49.374Z,97197.78
2023-01-11T04:22:15.921Z,97195.78
2023-01-11T04:24:42.456Z,97203.00
2023-01-11T04:27:08.938Z,97199.31
2023-01-11T04:29:35.509Z,97208.16
2023-01-11T04:32:02.081Z,97203.97
2023-01-11T04:34:28.478Z,97189.75
2023-01-11T04:36:54.972Z,97192.28
2023-01-11T04:39:21.490Z,97180.34
2023-01-11T04:42:06.333Z,97184.06
2023-01-11T04:44:32.783Z,97185.25
2023-01-11T04:46:59.290Z,97179.59
2023-01-11T04:49:26.911Z,97186.09
2023-01-11T04:51:53.344Z,97183.47
2023-01-11T04:54:19.990Z,97191.75
2023-01-11T04:56:46.576Z,97185.31
2023-01-11T04:59:13.959Z,97176.91
2023-01-11T05:01:40.494Z,97180.03
2023-01-11T05:04:07.058Z,97180.31
2023-01-11T05:06:33.702Z,97163.78
2023-01-11T05:09:00.165Z,97173.16
2023-01-11T05:11:26.623Z,97171.38
2023-01-11T05:13:53.132Z,97165.63
2023-01-11T05:16:23.784Z,97171.75
2023-01-11T05:18:55.961Z,97169.16
2023-01-11T05:21:25.925Z,97171.44
2023-01-11T05:23:53.587Z,97172.47
2023-01-11T05:26:26.722Z,97173.75
2023-01-11T05:28:55.374Z,97174.72
2023-01-11T05:31:22.879Z,97171.72
2023-01-11T05:33:49.522Z,97168.66
2023-01-11T05:36:21.315Z,97164.34
2023-01-11T05:38:50.648Z,97169.56
2023-01-11T05:41:19.529Z,97164.41
2023-01-11T05:44:06.524Z,97162.75
2023-01-11T05:46:34.312Z,97163.22
2023-01-11T05:49:01.054Z,97163.44
2023-01-11T05:51:32.605Z,97155.59
2023-01-11T05:54:05.083Z,97151.06
2023-01-11T05:56:31.986Z,97135.75
2023-01-11T05:58:58.798Z,97127.88
2023-01-11T06:01:25.484Z,97127.97
2023-01-11T06:03:52.115Z,97127.81
2023-01-11T06:06:20.275Z,97124.16
2023-01-11T06:08:47.317Z,97116.78
2023-01-11T06:11:14.824Z,97117.66
2023-01-11T06:13:41.859Z,97109.31
2023-01-11T06:16:14.002Z,97110.91
2023-01-11T06:18:43.025Z,97104.63
2023-01-11T06:21:10.623Z,97112.59
2023-01-11T06:23:40.090Z,97108.94
2023-01-11T06:26:13.031Z,97111.97
2023-01-11T06:28:39.831Z,97106.38
2023-01-11T06:31:07.120Z,97107.44
2023-01-11T06:33:34.550Z,97106.59
2023-01-11T06:36:06.533Z,97106.81
2023-01-11T06:38:33.301Z,97096.13
2023-01-11T06:41:01.910Z,97100.25
2023-01-11T06:43:29.613Z,97102.22
2023-01-11T06:45:56.697Z,97106.19
2023-01-11T06:48:23.831Z,97102.00
2023-01-11T06:50:52.503Z,97106.63
2023-01-11T06:53:19.044Z,97110.28
2023-01-11T06:55:49.601Z,97111.78
2023-01-11T06:58:16.215Z,97110.16
2023-01-11T07:00:42.773Z,97102.53
2023-01-11T07:03:11.427Z,97101.03
2023-01-11T07:05:38.053Z,97087.75
2023-01-11T07:08:04.978Z,97094.28
2023-01-11T07:10:31.539Z,97088.47
2023-01-11T07:12:58.124Z,97083.94
2023-01-11T07:15:24.594Z,97097.94
2023-01-11T07:17:58.236Z,97085.91
2023-01-11T07:20:25.804Z,97080.41
2023-01-11T07:22:52.328Z,97092.00
2023-01-11T07:25:18.934Z,97082.75
2023-01-11T07:27:45.459Z,97091.84
2023-01-11T07:30:12.444Z,97098.28
2023-01-11T07:32:39.249Z,97098.00
2023-01-11T07:35:07.084Z,97106.06
2023-01-11T07:37:34.144Z,97105.63
2023-01-11T07:40:00.855Z,97100.69
2023-01-11T07:42:45.839Z,97099.06
2023-01-11T07:45:12.588Z,97103.53
2023-01-11T07:47:39.593Z,97106.00
2023-01-11T07:50:06.726Z,97097.50
2023-01-11T07:52:33.182Z,97092.13
2023-01-11T07:55:02.555Z,97102.38
2023-01-11T07:57:32.971Z,97093.63
2023-01-11T07:59:59.448Z,97085.56
2023-01-11T08:02:26.044Z,97091.66
2023-01-11T08:04:52.598Z,97094.94
2023-01-11T08:07:19.098Z,97095.75
2023-01-11T08:09:45.496Z,97094.00
2023-01-11T08:12:30.340Z,97094.00
2023-01-11T08:14:56.899Z,97085.34
2023-01-11T08:17:23.361Z,97088.88
2023-01-11T08:19:49.823Z,97091.31
2023-01-11T08:22:18.011Z,97081.97
2023-01-11T08:24:44.712Z,97078.22
2023-01-11T08:27:11.303Z,97084.75
2023-01-11T08:29:38.198Z,97074.09
2023-01-11T08:32:04.953Z,97070.38
2023-01-11T08:34:33.660Z,97085.78
2023-01-11T08:37:02.019Z,97083.09
2023-01-11T08:39:31.909Z,97077.03
2023-01-11T08:41:59.637Z,97083.56
2023-01-11T08:44:34.000Z,97080.97
2023-01-11T08:47:01.778Z,97081.59
2023-01-11T08:49:30.279Z,97079.47
2023-01-11T08:51:56.769Z,97079.22
2023-01-11T08:54:23.424Z,97077.34
2023-01-11T08:56:49.837Z,97083.41
2023-01-11T08:59:16.271Z,97082.72
2023-01-11T09:01:42.781Z,97087.97
2023-01-11T09:04:23.111Z,97085.84
2023-01-11T09:06:50.380Z,97088.06
2023-01-11T09:09:16.982Z,97084.81
2023-01-11T09:11:56.983Z,97082.22
2023-01-11T09:14:25.788Z,97080.06
2023-01-11T09:16:53.972Z,97086.53
2023-01-11T09:19:21.041Z,97088.41
2023-01-11T09:21:47.733Z,97092.38
2023-01-11T09:24:14.776Z,97085.69
2023-01-11T09:26:43.934Z,97089.78
2023-01-11T09:29:11.662Z,97086.25
2023-01-11T09:31:38.504Z,97094.69
2023-01-11T09:34:06.741Z,97086.38
2023-01-11T09:36:35.768Z,97095.50
2023-01-11T09:39:05.701Z,97099.56
2023-01-11T09:41:50.898Z,97096.75
2023-01-11T09:44:23.167Z,97101.88
2023-01-11T09:46:55.952Z,97096.63
2023-01-11T09:49:28.081Z,97096.34
2023-01-11T09:52:23.868Z,97091.09
2023-01-11T09:54:51.340Z,97088.72
2023-01-11T09:57:39.317Z,97089.53
2023-01-11T10:00:06.282Z,97100.81
2023-01-11T10:02:53.197Z,97096.22
2023-01-11T10:05:34.796Z,97093.94
2023-01-11T10:18:22.884Z,97099.34
2023-01-11T10:18:29.206Z,97093.94
2023-01-11T10:20:15.432Z,97091.84
2023-01-11T10:22:46.931Z,97093.25
2023-01-11T10:25:26.519Z,97092.97
2023-01-11T10:28:01.448Z,97091.44
2023-01-11T10:30:51.867Z,97090.78
2023-01-11T10:33:36.624Z,97093.50
2023-01-11T10:36:35.460Z,97096.19
2023-01-11T10:39:41.627Z,97088.44
2023-01-11T10:42:15.374Z,97092.69
2023-01-11T10:44:52.518Z,97093.72
2023-01-11T10:47:27.747Z,97095.38
2023-01-11T10:50:05.062Z,97099.72
2023-01-11T10:52:41.680Z,97089.72
2023-01-11T10:58:44.143Z,97094.41
2023-01-11T11:01:17.249Z,97089.31
2023-01-11T11:04:09.302Z,97086.75
2023-01-11T11:06:43.209Z,97087.06
2023-01-11T11:09:45.770Z,97082.41
2023-01-11T11:12:23.159Z,97086.59
2023-01-11T11:14:57.862Z,97078.84
2023-01-11T11:17:36.735Z,97080.22
2023-01-11T11:20:13.614Z,97078.34
2023-01-11T11:22:40.122Z,97074.59
2023-01-11T11:25:20.391Z,97078.56
2023-01-11T11:27:51.284Z,97077.56
2023-01-11T11:30:39.067Z,97071.13
2023-01-11T11:33:20.501Z,97069.81
2023-01-11T11:35:59.711Z,97073.13
2023-01-11T11:38:30.025Z,97060.06
2023-01-11T11:41:03.920Z,97066.78
2023-01-11T11:43:32.482Z,97070.38
2023-01-11T11:46:01.083Z,97069.88
2023-01-11T11:48:33.531Z,97065.31
2023-01-11T11:51:06.559Z,97065.78
2023-01-11T11:53:39.790Z,97063.56
2023-01-11T11:56:17.934Z,97062.50
2023-01-11T11:58:45.524Z,97062.44
2023-01-11T12:01:32.966Z,97064.59
2023-01-11T12:04:05.084Z,97062.88
2023-01-11T12:06:31.622Z,97054.94
2023-01-11T12:09:01.646Z,97057.41
2023-01-11T12:11:34.103Z,97058.53
2023-01-11T12:14:23.724Z,97059.09
2023-01-11T12:16:50.296Z,97063.44
2023-01-11T12:19:41.305Z,97060.66
2023-01-11T12:22:25.228Z,97071.78
2023-01-11T12:25:24.882Z,97062.19
2023-01-11T12:28:14.217Z,97060.06
2023-01-11T12:30:49.489Z,97067.47
2023-01-11T12:33:33.949Z,97068.75
2023-01-11T12:36:26.816Z,97074.25
2023-01-11T12:38:58.249Z,97071.38
2023-01-11T12:41:47.768Z,97065.97
2023-01-11T12:44:26.246Z,97065.50
2023-01-11T12:47:39.813Z,97067.06
2023-01-11T12:50:15.031Z,97072.63
2023-01-11T12:52:53.424Z,97071.91
2023-01-11T12:55:26.207Z,97081.91
2023-01-11T12:58:05.183Z,97090.97
2023-01-11T13:01:03.716Z,97082.22
2023-01-11T13:03:51.832Z,97077.91
2023-01-11T13:06:32.120Z,97078.38
2023-01-11T13:09:05.966Z,97079.88
2023-01-11T13:11:45.599Z,97080.94
2023-01-11T13:14:27.385Z,97084.34
2023-01-11T13:17:06.076Z,97088.75
2023-01-11T13:19:47.387Z,97090.81
2023-01-11T13:22:19.349Z,97094.22
2023-01-11T13:24:50.761Z,97098.22
2023-01-11T13:27:23.083Z,97101.94
2023-01-11T13:29:55.988Z,97104.31
2023-01-11T13:32:27.637Z,97106.19
2023-01-11T13:35:05.339Z,97108.25
2023-01-11T13:37:40.325Z,97119.13
2023-01-11T13:40:17.660Z,97119.34
2023-01-11T13:42:52.682Z,97128.00
2023-01-11T13:45:27.799Z,97134.72
2023-01-11T13:48:01.878Z,97131.53
2023-01-11T13:50:33.958Z,97134.31
2023-01-11T13:53:22.522Z,97140.66
2023-01-11T13:55:59.378Z,97150.38
2023-01-11T13:58:37.712Z,97151.59
2023-01-11T14:01:11.064Z,97159.25
2023-01-11T14:03:40.541Z,97159.63
2023-01-11T14:06:35.755Z,97168.75
2023-01-11T14:09:33.578Z,97165.69
2023-01-11T14:12:09.011Z,97161.34
2023-01-11T14:14:54.249Z,97162.91
2023-01-11T14:17:57.118Z,97156.19
2023-01-11T14:20:43.375Z,97170.44
2023-01-11T14:23:20.473Z,97174.53
2023-01-11T14:26:07.396Z,97175.03
2023-01-11T14:28:58.087Z,97177.34
2023-01-11T14:31:39.539Z,97197.94
2023-01-11T14:34:50.577Z,97199.09
2023-01-11T14:37:44.437Z,97202.78
2023-01-11T14:40:30.709Z,97213.28
2023-01-11T14:42:57.084Z,97208.41
2023-01-11T14:45:47.830Z,97214.72
2023-01-11T14:48:39.452Z,97217.09
2023-01-11T14:51:18.304Z,97218.75
2023-01-11T14:54:01.896Z,97228.03
2023-01-11T14:56:55.200Z,97225.31
2023-01-11T14:59:30.896Z,97230.59
2023-01-11T15:02:03.503Z,97227.66
2023-01-11T15:04:35.319Z,97239.25
2023-01-11T15:07:02.718Z,97237.97
2023-01-11T15:09:49.692Z,97245.94
2023-01-11T15:12:22.386Z,97253.91
2023-01-11T15:14:54.689Z,97257.53
2023-01-11T15:17:43.869Z,97260.22
2023-01-11T15:20:16.568Z,97277.00
2023-01-11T15:22:43.912Z,97278.84
2023-01-11T15:25:28.691Z,97277.34
2023-01-11T15:27:55.885Z,97276.75
2023-01-11T15:30:28.731Z,97277.69
2023-01-11T15:33:18.569Z,97290.31
2023-01-11T15:35:57.350Z,97288.47
2023-01-11T15:38:30.550Z,97291.38
2023-01-11T15:41:18.494Z,97300.97
2023-01-11T15:44:14.331Z,97304.38
2023-01-11T15:47:18.321Z,97310.00
2023-01-11T15:50:03.213Z,97318.88
2023-01-11T15:53:06.961Z,97311.03
2023-01-11T15:56:11.119Z,97306.59
2023-01-11T15:59:15.413Z,97306.06
2023-01-11T16:02:05.352Z,97314.66
2023-01-11T16:04:44.326Z,97327.63
2023-01-11T16:07:22.625Z,97332.31
2023-01-11T16:10:11.784Z,97338.66
2023-01-11T16:12:52.594Z,97342.94
2023-01-11T16:15:31.952Z,97350.22
2023-01-11T16:18:22.483Z,97353.84
2023-01-11T16:21:49.413Z,97351.72
2023-01-11T16:24:20.326Z,97363.22
2023-01-11T16:26:56.786Z,97367.63
2023-01-11T16:29:26.853Z,97366.69
2023-01-11T16:31:55.387Z,97378.41
2023-01-11T16:34:22.729Z,97382.88
2023-01-11T16:36:49.336Z,97395.38
2023-01-11T16:39:20.651Z,97392.44
2023-01-11T16:41:58.715Z,97385.97
2023-01-11T16:44:36.705Z,97389.94
2023-01-11T16:47:11.365Z,97398.00
2023-01-11T16:49:39.532Z,97400.13
2023-01-11T16:52:46.711Z,97405.03
2023-01-11T16:55:27.241Z,97407.59
2023-01-11T16:57:58.497Z,97401.97
2023-01-11T17:00:32.448Z,97401.63
2023-01-11T17:03:06.449Z,97414.16
2023-01-11T17:05:33.001Z,97416.34
2023-01-11T17:07:59.480Z,97426.72
2023-01-11T17:10:28.905Z,97429.88
2023-01-11T17:12:57.947Z,97434.53
2023-01-11T17:15:49.648Z,97428.91
2023-01-11T17:18:17.278Z,97436.03
2023-01-11T17:20:43.676Z,97440.50
2023-01-11T17:23:16.393Z,97448.78
2023-01-11T17:25:45.080Z,97463.53
2023-01-11T17:28:19.088Z,97474.94
2023-01-11T17:30:48.743Z,97471.50
2023-01-11T17:33:31.865Z,97479.00
2023-01-11T17:36:00.443Z,97493.72
2023-01-11T17:38:28.124Z,97520.50
2023-01-11T17:40:58.652Z,97521.56
2023-01-11T17:43:46.368Z,97528.47
2023-01-11T17:46:16.184Z,97521.00
2023-01-11T17:48:55.941Z,97532.28
2023-01-11T17:51:33.368Z,97533.16
2023-01-11T17:54:00.170Z,97534.72
2023-01-11T17:56:32.585Z,97528.78
2023-01-11T17:59:23.332Z,97550.47
2023-01-11T18:02:10.886Z,97541.13
2023-01-11T18:04:37.777Z,97545.06
2023-01-11T18:07:14.047Z,97536.00
2023-01-11T18:09:45.996Z,97543.72
2023-01-11T18:12:20.665Z,97550.75
2023-01-11T18:15:02.602Z,97542.94
2023-01-11T18:17:41.949Z,97548.72
2023-01-11T18:20:14.866Z,97549.56
2023-01-11T18:22:53.357Z,97549.38
2023-01-11T18:25:24.747Z,97538.19
2023-01-11T18:27:51.878Z,97538.78
2023-01-11T18:30:30.700Z,97540.84
2023-01-11T18:32:59.270Z,97541.72
2023-01-11T18:35:25.683Z,97542.16
2023-01-11T18:37:52.169Z,97546.53
2023-01-11T18:40:19.179Z,97534.53
2023-01-11T18:42:46.819Z,97544.63
2023-01-11T18:45:13.934Z,97541.97
2023-01-11T18:47:40.456Z,97545.44
2023-01-11T18:50:09.348Z,97546.22
2023-01-11T18:52:37.067Z,97546.00
2023-01-11T18:55:04.084Z,97540.03
2023-01-11T18:57:30.597Z,97547.03
2023-01-11T18:59:57.095Z,97544.97
2023-01-11T19:02:42.252Z,97547.88
2023-01-11T19:05:14.210Z,97556.16
2023-01-11T19:07:40.844Z,97564.59
2023-01-11T19:10:07.720Z,97561.50
2023-01-11T19:12:34.166Z,97567.22
2023-01-11T19:15:00.676Z,97564.28
2023-01-11T19:17:30.061Z,97576.91
2023-01-11T19:19:56.506Z,97583.25
2023-01-11T19:22:26.176Z,97584.72
2023-01-11T19:24:53.878Z,97582.69
2023-01-11T19:27:20.535Z,97595.06
2023-01-11T19:29:47.020Z,97604.56
2023-01-11T19:32:15.535Z,97603.16
2023-01-11T19:34:42.093Z,97612.28
2023-01-11T19:37:08.563Z,97618.28
2023-01-11T19:39:36.062Z,97615.22
2023-01-11T19:42:03.108Z,97613.53
2023-01-11T19:44:34.491Z,97611.47
2023-01-11T19:47:11.472Z,97611.31
2023-01-11T19:49:40.103Z,97613.97
2023-01-11T19:52:13.193Z,97604.03
2023-01-11T19:54:43.999Z,97600.75
2023-01-11T19:57:12.354Z,97601.78
2023-01-11T19:59:38.968Z,97607.38
2023-01-11T20:02:06.044Z,97597.03
2023-01-11T20:04:33.302Z,97597.44
2023-01-11T20:07:00.386Z,97593.34
2023-01-11T20:09:26.885Z,97592.94
2023-01-11T20:11:54.554Z,97591.75
2023-01-11T20:14:21.128Z,97598.94
2023-01-11T20:16:47.655Z,97600.38
2023-01-11T20:19:14.929Z,97597.91
2023-01-11T20:21:41.567Z,97599.94
2023-01-11T20:24:12.968Z,97611.28
2023-01-11T20:26:40.066Z,97606.09
2023-01-11T20:29:07.098Z,97610.00
2023-01-11T20:31:35.260Z,97615.16
2023-01-11T20:34:07.432Z,97611.44
2023-01-11T20:36:33.936Z,97610.59
2023-01-11T20:39:00.571Z,97618.03
2023-01-11T20:41:46.713Z,97611.84
2023-01-11T20:44:15.926Z,97613.31
2023-01-11T20:46:42.999Z,97613.94
2023-01-11T20:49:09.621Z,97619.09
2023-01-11T20:51:36.463Z,97621.34
2023-01-11T20:54:04.287Z,97614.13
2023-01-11T20:56:33.031Z,97610.84
2023-01-11T20:59:00.889Z,97607.53
2023-01-11T21:01:28.710Z,97608.78
2023-01-11T21:04:01.191Z,97608.16
2023-01-11T21:06:29.698Z,97625.09
2023-01-11T21:08:57.722Z,97618.50
2023-01-11T21:11:25.021Z,97606.91
2023-01-11T21:13:53.411Z,97616.41
2023-01-11T21:16:22.547Z,97625.91
2023-01-11T21:18:59.673Z,97629.63
2023-01-11T21:21:26.719Z,97620.50
2023-01-11T21:23:57.799Z,97622.75
2023-01-11T21:26:25.578Z,97621.72
2023-01-11T21:28:55.528Z,97627.53
2023-01-11T21:31:22.333Z,97624.25
2023-01-11T21:33:49.689Z,97620.16
2023-01-11T21:36:20.052Z,97633.56
2023-01-11T21:38:46.967Z,97627.19
2023-01-11T21:41:16.071Z,97625.91
2023-01-11T21:43:42.765Z,97617.91
2023-01-11T21:46:10.176Z,97609.84
2023-01-11T21:48:37.104Z,97619.56
2023-01-11T21:51:06.780Z,97629.06
2023-01-11T21:53:33.477Z,97623.44
2023-01-11T21:56:04.928Z,97610.28
2023-01-11T21:58:31.726Z,97599.16
2023-01-11T22:00:58.410Z,97600.81
2023-01-11T22:03:29.401Z,97593.38
2023-01-11T22:06:02.536Z,97604.72
2023-01-11T22:08:29.080Z,97599.94
2023-01-11T22:10:59.245Z,97613.97
2023-01-11T22:13:27.754Z,97627.19
2023-01-11T22:15:54.279Z,97626.53
2023-01-11T22:18:22.142Z,97625.31
2023-01-11T22:20:49.511Z,97632.31
2023-01-11T22:23:16.050Z,97638.72
2023-01-11T22:25:42.499Z,97634.59
2023-01-11T22:28:08.954Z,97640.56
2023-01-11T22:30:35.425Z,97635.78
2023-01-11T22:33:01.937Z,97636.84
2023-01-11T22:35:30.930Z,97631.09
2023-01-11T22:37:57.382Z,97627.72
2023-01-11T22:40:23.977Z,97637.88
2023-01-11T22:42:50.417Z,97637.44
2023-01-11T22:45:17.117Z,97637.81
2023-01-11T22:47:43.605Z,97631.84
2023-01-11T22:50:10.367Z,97631.47
2023-01-11T22:52:36.848Z,97645.13
2023-01-11T22:55:03.452Z,97641.81
2023-01-11T22:57:31.394Z,97647.44
2023-01-11T22:59:58.941Z,97647.66
2023-01-11T23:02:25.517Z,97634.66
2023-01-11T23:04:51.989Z,97625.78
2023-01-11T23:07:19.486Z,97619.19
2023-01-11T23:09:46.007Z,97621.25
2023-01-11T23:12:31.199Z,97617.75
2023-01-11T23:14:57.665Z,97620.03
2023-01-11T23:17:24.146Z,97633.00
2023-01-11T23:19:51.830Z,97628.06
2023-01-11T23:22:18.213Z,97621.47
2023-01-11T23:24:44.702Z,97622.06
2023-01-11T23:27:11.189Z,97619.56
2023-01-11T23:29:37.716Z,97622.66
2023-01-11T23:32:04.398Z,97624.94
2023-01-11T23:34:30.978Z,97624.34
2023-01-11T23:36:57.413Z,97613.00
2023-01-11T23:39:23.981Z,97611.53
2023-01-11T23:42:09.222Z,97613.19
2023-01-11T23:44:35.686Z,97607.22
2023-01-11T23:47:20.791Z,97611.34
2023-01-11T23:49:52.842Z,97610.75
2023-01-11T23:52:20.725Z,97616.31
2023-01-11T23:54:47.316Z,97614.47
2023-01-11T23:57:14.986Z,97617.13
2023-01-11T23:59:42.074Z,97624.97
